Time;durP1;ratioP1;P1;durP2;ratioP2;P2;SDS_P1;SDS_P2;PMS_P1;PMS_P2;Temp;Humidity;BMP_temperature;BMP_pressure;BME280_temperature;BME280_humidity;BME280_pressure;Samples;Min_cycle;Max_cycle;Signal;HPM_P1;HPM_P2
2023/03/15 00:00:02;;;;;;;6.47;0.80;;;;;;;7.96;100.00;99373.47;5025843;28;20426;-75
2023/03/15 00:02:28;;;;;;;4.28;1.40;;;;;;;7.91;100.00;99370.53;5029697;28;20079;-75
2023/03/15 00:04:53;;;;;;;3.85;1.35;;;;;;;7.90;100.00;99380.09;5027780;28;20029;-75
2023/03/15 00:07:24;;;;;;;4.28;0.90;;;;;;;7.89;100.00;99381.06;5028872;28;20477;-75
2023/03/15 00:09:50;;;;;;;4.05;1.13;;;;;;;7.87;100.00;99384.75;5028154;28;20037;-75
2023/03/15 00:12:16;;;;;;;4.03;1.38;;;;;;;7.91;100.00;99383.50;5030189;28;20811;-75
2023/03/15 00:14:41;;;;;;;3.58;0.80;;;;;;;7.90;100.00;99385.28;5031188;28;20040;-75
2023/03/15 00:17:07;;;;;;;4.22;1.15;;;;;;;7.92;100.00;99387.72;5030587;28;20079;-75
2023/03/15 00:19:32;;;;;;;4.28;1.20;;;;;;;7.92;100.00;99388.53;5031178;28;20034;-74
2023/03/15 00:21:58;;;;;;;5.05;1.98;;;;;;;7.97;100.00;99388.06;5029544;28;20045;-75
2023/03/15 00:24:23;;;;;;;5.38;2.47;;;;;;;8.04;100.00;99385.66;5016335;28;20477;-75
2023/03/15 00:26:49;;;;;;;4.20;1.23;;;;;;;8.09;100.00;99389.41;5030322;28;20468;-76
2023/03/15 00:29:14;;;;;;;3.13;1.15;;;;;;;8.10;100.00;99387.63;5026808;28;20037;-76
2023/03/15 00:31:39;;;;;;;3.33;0.85;;;;;;;8.11;100.00;99387.47;5028539;28;20039;-75
2023/03/15 00:34:05;;;;;;;6.85;1.40;;;;;;;8.07;100.00;99386.16;5031228;28;20056;-75
2023/03/15 00:36:31;;;;;;;6.10;1.85;;;;;;;8.02;100.00;99387.63;5036474;28;20036;-75
2023/03/15 00:38:57;;;;;;;4.13;1.77;;;;;;;7.98;100.00;99381.91;5030901;28;20146;-75
2023/03/15 00:41:23;;;;;;;3.83;1.25;;;;;;;7.98;100.00;99394.88;5032086;28;20043;-75
2023/03/15 00:43:50;;;;;;;4.63;1.42;;;;;;;7.95;100.00;99400.38;5041731;28;20234;-75
2023/03/15 00:46:17;;;;;;;4.80;1.40;;;;;;;7.95;100.00;99398.59;5042613;28;20079;-75
2023/03/15 00:48:42;;;;;;;5.55;1.48;;;;;;;7.97;100.00;99401.03;5040445;28;20547;-75
2023/03/15 00:51:10;;;;;;;6.88;1.45;;;;;;;7.99;100.00;99399.09;5045072;28;20038;-75
2023/03/15 00:53:37;;;;;;;6.97;1.60;;;;;;;8.01;100.00;99401.56;5045942;28;20025;-75
2023/03/15 00:56:09;;;;;;;4.53;2.47;;;;;;;8.03;100.00;99405.63;5043120;28;20139;-75
2023/03/15 00:58:35;;;;;;;5.30;1.83;;;;;;;8.02;100.00;99404.00;5029893;28;20400;-75
2023/03/15 01:01:11;;;;;;;3.72;1.67;;;;;;;7.99;100.00;99406.88;5047236;28;20052;-75
2023/03/15 01:03:37;;;;;;;6.03;1.42;;;;;;;7.97;100.00;99404.44;5050115;28;20383;-76
2023/03/15 01:06:13;;;;;;;3.25;1.92;;;;;;;7.97;100.00;99408.81;5042158;28;20029;-76
2023/03/15 01:08:40;;;;;;;3.95;1.52;;;;;;;7.94;100.00;99407.34;5040032;28;20409;-75
2023/03/15 01:11:07;;;;;;;2.85;1.67;;;;;;;7.93;100.00;99408.31;5046191;28;20025;-75
2023/03/15 01:13:33;;;;;;;4.38;1.52;;;;;;;7.92;100.00;99406.69;5042346;28;20103;-75
2023/03/15 01:15:59;;;;;;;7.18;1.45;;;;;;;7.94;100.00;99404.75;5036443;28;20064;-76
2023/03/15 01:18:24;;;;;;;2.53;1.27;;;;;;;7.98;100.00;99405.25;5048968;28;20033;-75
2023/03/15 01:20:50;;;;;;;4.82;1.15;;;;;;;7.98;100.00;99413.03;5049063;28;20124;-75
2023/03/15 01:23:15;;;;;;;2.50;1.10;;;;;;;7.93;100.00;99410.91;5045287;28;20041;-78
2023/03/15 01:25:41;;;;;;;3.25;1.08;;;;;;;7.93;100.00;99404.91;5049309;28;20029;-75
2023/03/15 01:28:07;;;;;;;5.93;0.90;;;;;;;7.93;100.00;99412.69;5041931;28;20033;-76
2023/03/15 01:30:32;;;;;;;3.67;1.52;;;;;;;7.93;100.00;99404.91;5046830;28;20029;-75
2023/03/15 01:32:58;;;;;;;2.15;0.98;;;;;;;7.92;100.00;99408.47;5049276;28;20021;-76
2023/03/15 01:35:23;;;;;;;4.82;1.23;;;;;;;7.94;100.00;99406.53;5029885;28;20046;-76
2023/03/15 01:37:50;;;;;;;4.45;1.40;;;;;;;7.93;100.00;99415.28;5045341;28;20033;-75
2023/03/15 01:40:15;;;;;;;3.70;1.33;;;;;;;7.94;100.00;99412.53;5039694;28;20048;-75
2023/03/15 01:43:03;;;;;;;5.78;1.65;;;;;;;7.97;100.00;99416.59;5026478;28;20028;-75
2023/03/15 01:46:05;;;;;;;5.00;1.13;;;;;;;7.94;100.00;99409.13;5048400;28;20044;-76
2023/03/15 01:48:38;;;;;;;4.80;1.02;;;;;;;7.94;100.00;99407.34;5048149;28;20059;-75
2023/03/15 01:51:32;;;;;;;6.05;1.10;;;;;;;7.95;100.00;99418.53;5041399;28;20048;-75
2023/03/15 01:54:14;;;;;;;6.82;1.60;;;;;;;7.95;100.00;99418.53;5014381;28;20446;-75
2023/03/15 01:56:45;;;;;;;3.47;1.15;;;;;;;8.00;100.00;99421.50;5049709;28;20029;-76
2023/03/15 01:59:15;;;;;;;4.53;1.50;;;;;;;8.07;100.00;99416.47;5049252;28;20059;-76
2023/03/15 02:01:44;;;;;;;4.03;1.30;;;;;;;8.07;100.00;99422.47;5046663;28;20485;-75
2023/03/15 02:04:16;;;;;;;4.38;1.15;;;;;;;8.04;100.00;99422.78;5054630;28;20046;-76
2023/03/15 02:06:45;;;;;;;7.75;1.65;;;;;;;8.04;100.00;99422.78;5046742;28;20120;-76
2023/03/15 02:09:14;;;;;;;3.33;0.90;;;;;;;7.99;100.00;99425.84;5048894;28;20043;-76
2023/03/15 02:11:41;;;;;;;4.68;1.27;;;;;;;8.01;100.00;99420.53;5050555;28;20052;-76
2023/03/15 02:14:08;;;;;;;5.47;1.10;;;;;;;8.01;100.00;99430.09;5050016;28;20128;-76
2023/03/15 02:16:34;;;;;;;6.03;1.25;;;;;;;8.01;100.00;99428.31;5043988;28;20037;-75
2023/03/15 02:18:59;;;;;;;4.22;0.88;;;;;;;7.99;100.00;99430.22;5051186;28;20040;-75
2023/03/15 02:21:54;;;;;;;4.15;1.27;;;;;;;7.98;100.00;99438.97;5040851;28;20043;-75
2023/03/15 02:24:43;;;;;;;3.00;0.82;;;;;;;7.91;100.00;99437.97;5043734;28;20029;-76
2023/03/15 02:27:08;;;;;;;4.35;1.45;;;;;;;7.90;100.00;99433.75;5047907;28;20033;-75
2023/03/15 02:29:34;;;;;;;3.95;1.27;;;;;;;7.89;100.00;99440.69;5051147;28;20075;-76
2023/03/15 02:32:03;;;;;;;4.35;1.10;;;;;;;7.92;100.00;99447.38;5047717;28;20167;-76
2023/03/15 02:34:30;;;;;;;2.30;0.90;;;;;;;7.95;100.00;99439.28;5044223;28;20035;-76
2023/03/15 02:36:56;;;;;;;6.88;1.00;;;;;;;7.95;100.00;99442.69;5027955;28;20060;-76
2023/03/15 02:39:22;;;;;;;6.35;1.05;;;;;;;7.97;100.00;99445.13;5044001;28;20379;-75
2023/03/15 02:41:56;;;;;;;3.50;0.98;;;;;;;7.98;100.00;99455.34;5047300;28;20049;-76
2023/03/15 02:44:32;;;;;;;1.35;0.80;;;;;;;7.96;100.00;99452.09;5044714;28;20168;-76
2023/03/15 02:47:10;;;;;;;4.20;1.00;;;;;;;7.91;100.00;99459.53;5045042;28;20048;-75
2023/03/15 02:49:39;;;;;;;2.75;0.50;;;;;;;7.87;100.00;99465.97;5052115;28;20497;-75
2023/03/15 02:52:05;;;;;;;1.48;0.57;;;;;;;7.91;100.00;99461.31;5043607;28;20047;-75
2023/03/15 02:54:33;;;;;;;1.25;0.40;;;;;;;8.13;100.00;99467.75;5041422;28;20030;-76
2023/03/15 02:57:00;;;;;;;1.15;0.50;;;;;;;8.19;100.00;99478.34;5046536;28;20068;-75
2023/03/15 02:59:26;;;;;;;1.05;0.30;;;;;;;8.18;100.00;99470.69;5044619;28;20045;-76
2023/03/15 03:01:51;;;;;;;0.98;0.30;;;;;;;8.27;100.00;99474.97;5041048;28;20056;-76
2023/03/15 03:04:17;;;;;;;3.80;0.30;;;;;;;8.35;100.00;99482.03;5033807;28;20032;-76
2023/03/15 03:06:42;;;;;;;3.20;0.30;;;;;;;8.36;100.00;99488.84;5043945;28;20052;-75
2023/03/15 03:09:09;;;;;;;0.85;0.22;;;;;;;8.31;100.00;99503.06;5046027;28;20021;-76
2023/03/15 03:11:35;;;;;;;1.75;0.43;;;;;;;8.30;100.00;99501.44;5036604;28;20025;-75
2023/03/15 03:14:00;;;;;;;2.28;0.30;;;;;;;8.26;100.00;99499.28;5045440;28;20037;-75
2023/03/15 03:16:26;;;;;;;2.35;0.20;;;;;;;8.26;100.00;99505.31;5045510;28;20108;-76
2023/03/15 03:18:51;;;;;;;2.60;0.47;;;;;;;8.24;100.00;99511.59;5043434;28;20040;-75
2023/03/15 03:21:17;;;;;;;2.95;0.40;;;;;;;8.17;100.00;99520.97;5046282;28;20574;-76
2023/03/15 03:23:45;;;;;;;2.50;0.80;;;;;;;8.08;100.00;99525.28;5044141;28;20040;-76
2023/03/15 03:26:16;;;;;;;2.00;0.40;;;;;;;8.06;100.00;99529.81;5043919;28;20119;-75
2023/03/15 03:28:46;;;;;;;2.50;0.60;;;;;;;8.12;100.00;99524.00;5045199;28;20047;-75
2023/03/15 03:31:21;;;;;;;4.82;0.65;;;;;;;8.03;100.00;99535.31;5040741;28;20079;-75
2023/03/15 03:33:47;;;;;;;2.67;0.73;;;;;;;7.97;100.00;99536.72;5044125;28;20408;-75
2023/03/15 03:36:12;;;;;;;2.35;0.70;;;;;;;7.89;100.00;99544.44;5040254;28;20291;-75
2023/03/15 03:38:42;;;;;;;3.20;0.73;;;;;;;7.81;100.00;99546.16;5045741;28;20036;-75
2023/03/15 03:41:09;;;;;;;3.28;0.60;;;;;;;7.76;100.00;99554.38;5038726;28;20071;-75
2023/03/15 03:43:35;;;;;;;2.92;0.52;;;;;;;7.75;100.00;99562.31;5041342;28;20031;-75
2023/03/15 03:46:00;;;;;;;6.70;0.70;;;;;;;7.71;100.00;99568.75;5041817;28;20385;-75
2023/03/15 03:48:26;;;;;;;5.78;0.80;;;;;;;7.65;100.00;99567.56;5043131;28;20102;-75
2023/03/15 03:50:51;;;;;;;2.20;0.65;;;;;;;7.64;100.00;99578.88;5040977;28;20033;-75
2023/03/15 03:53:17;;;;;;;3.45;0.50;;;;;;;7.69;100.00;99576.66;5042666;28;20037;-75
2023/03/15 03:55:42;;;;;;;3.63;0.80;;;;;;;7.73;100.00;99585.78;5046624;28;20090;-75
2023/03/15 03:58:08;;;;;;;2.65;0.50;;;;;;;7.78;100.00;99593.94;5043010;28;20048;-75
2023/03/15 04:00:35;;;;;;;4.22;0.40;;;;;;;7.77;100.00;99604.47;5044008;28;20135;-75
2023/03/15 04:03:00;;;;;;;4.80;0.50;;;;;;;7.77;100.00;99602.69;5039213;28;20032;-75
2023/03/15 04:05:27;;;;;;;7.75;0.85;;;;;;;7.82;100.00;99607.44;5046322;28;20043;-75
2023/03/15 04:07:53;;;;;;;4.03;0.73;;;;;;;7.89;100.00;99613.66;5042179;28;20031;-75
2023/03/15 04:10:18;;;;;;;2.97;0.50;;;;;;;7.94;100.00;99609.66;5041181;28;20627;-75
2023/03/15 04:12:44;;;;;;;5.43;0.73;;;;;;;7.85;100.00;99620.09;5041037;28;20041;-74
2023/03/15 04:15:11;;;;;;;4.75;0.82;;;;;;;7.73;100.00;99622.09;5047653;28;20028;-74
2023/03/15 04:17:38;;;;;;;8.30;0.93;;;;;;;7.72;100.00;99636.00;5044471;28;20109;-75
2023/03/15 04:20:06;;;;;;;5.13;0.70;;;;;;;7.74;100.00;99639.28;5045817;28;20045;-75
2023/03/15 04:22:33;;;;;;;1.75;0.30;;;;;;;7.81;100.00;99645.50;5046945;28;20140;-75
2023/03/15 04:25:00;;;;;;;0.73;0.10;;;;;;;8.32;100.00;99651.81;5048974;28;20510;-75
2023/03/15 04:27:27;;;;;;;0.90;0.10;;;;;;;8.92;87.57;99649.34;5048206;28;20039;-76
2023/03/15 04:29:52;;;;;;;0.20;0.00;;;;;;;9.38;80.37;99650.72;5045122;28;20021;-75
2023/03/15 04:32:18;;;;;;;0.00;0.00;;;;;;;9.73;75.63;99659.28;5027121;28;20037;-76
2023/03/15 04:34:44;;;;;;;2.45;0.03;;;;;;;9.80;71.63;99652.47;5044873;28;20061;-76
2023/03/15 04:37:09;;;;;;;0.43;0.00;;;;;;;9.83;69.54;99654.75;5040478;28;20044;-76
2023/03/15 04:39:35;;;;;;;0.30;0.00;;;;;;;9.89;73.42;99651.50;5047283;28;20072;-76
2023/03/15 04:42:00;;;;;;;1.27;0.00;;;;;;;9.78;72.97;99662.22;5045856;28;20025;-78
2023/03/15 04:44:26;;;;;;;1.77;0.08;;;;;;;9.67;69.65;99671.13;5048168;28;20028;-77
2023/03/15 04:46:53;;;;;;;4.88;0.32;;;;;;;9.59;75.69;99671.91;5043020;28;20124;-76
2023/03/15 04:49:18;;;;;;;2.63;0.00;;;;;;;9.43;74.65;99677.06;5029306;28;20347;-76
2023/03/15 04:51:44;;;;;;;0.10;0.00;;;;;;;9.32;77.15;99679.94;5047267;28;20040;-76
2023/03/15 04:54:09;;;;;;;0.82;0.00;;;;;;;9.22;78.13;99684.41;5033024;28;20083;-76
2023/03/15 04:56:36;;;;;;;4.95;0.10;;;;;;;9.16;78.38;99690.22;5053027;28;20041;-76
2023/03/15 04:59:02;;;;;;;0.00;0.00;;;;;;;9.17;73.52;99689.25;5035470;28;21590;-76
2023/03/15 05:01:29;;;;;;;2.58;0.00;;;;;;;9.12;78.91;99699.31;5041056;28;20049;-76
2023/03/15 05:03:58;;;;;;;0.90;0.00;;;;;;;9.07;76.08;99706.75;5032775;28;20036;-77
2023/03/15 05:06:24;;;;;;;0.77;0.10;;;;;;;8.96;80.13;99716.44;5030762;28;20119;-76
2023/03/15 05:08:50;;;;;;;1.27;0.00;;;;;;;8.86;79.87;99720.91;5044486;28;20087;-76
2023/03/15 05:11:15;;;;;;;0.10;0.00;;;;;;;8.85;79.82;99724.47;5048329;28;20033;-75
2023/03/15 05:13:41;;;;;;;0.52;0.00;;;;;;;8.81;78.56;99735.31;5030527;28;20044;-75
2023/03/15 05:16:07;;;;;;;0.50;0.00;;;;;;;8.76;80.22;99727.97;5045575;28;20184;-75
2023/03/15 05:18:32;;;;;;;0.00;0.00;;;;;;;8.81;77.71;99730.13;5047169;28;20025;-76
2023/03/15 05:20:58;;;;;;;2.00;0.30;;;;;;;8.76;81.23;99732.34;5047050;28;20029;-76
2023/03/15 05:23:24;;;;;;;1.02;0.00;;;;;;;8.70;78.64;99725.97;5029750;28;20032;-76
2023/03/15 05:25:54;;;;;;;0.20;0.00;;;;;;;8.71;79.71;99721.59;5053202;28;20025;-75
2023/03/15 05:28:23;;;;;;;1.20;0.00;;;;;;;8.64;75.86;99721.38;5028422;28;20132;-76
2023/03/15 05:30:53;;;;;;;0.63;0.00;;;;;;;8.65;77.77;99718.63;5045076;28;20049;-76
2023/03/15 05:33:19;;;;;;;0.13;0.00;;;;;;;8.60;77.60;99704.47;5044305;28;20021;-76
2023/03/15 05:35:45;;;;;;;0.00;0.00;;;;;;;8.57;76.35;99702.16;5044676;28;20203;-76
2023/03/15 05:38:13;;;;;;;0.05;0.00;;;;;;;8.53;76.78;99700.84;5049956;28;20535;-75
2023/03/15 05:40:47;;;;;;;0.38;0.00;;;;;;;8.55;76.32;99711.88;5046523;28;20776;-75
2023/03/15 05:43:12;;;;;;;0.00;0.00;;;;;;;8.49;78.68;99715.09;5043739;28;20071;-75
2023/03/15 05:45:38;;;;;;;0.28;0.00;;;;;;;8.49;77.93;99715.91;5041705;28;20061;-75
2023/03/15 05:48:04;;;;;;;0.10;0.00;;;;;;;8.52;74.97;99715.59;5049543;28;20036;-76
2023/03/15 05:50:30;;;;;;;0.00;0.00;;;;;;;8.67;75.52;99721.06;5057652;28;20090;-76
2023/03/15 05:52:56;;;;;;;0.43;0.20;;;;;;;8.67;77.63;99721.06;5043654;28;21218;-75
2023/03/15 05:55:22;;;;;;;0.13;0.00;;;;;;;8.58;77.26;99719.38;5042478;28;20093;-76
2023/03/15 05:57:48;;;;;;;0.10;0.00;;;;;;;8.60;76.77;99720.84;5045162;28;20084;-76
2023/03/15 06:00:15;;;;;;;0.20;0.00;;;;;;;8.67;73.96;99723.69;5024835;28;20035;-76
2023/03/15 06:02:42;;;;;;;0.00;0.00;;;;;;;8.63;76.00;99704.16;5021749;28;20915;-75
2023/03/15 06:05:08;;;;;;;0.10;0.00;;;;;;;8.68;74.80;99720.13;5043048;28;20041;-76
2023/03/15 06:07:33;;;;;;;0.45;0.00;;;;;;;8.63;75.90;99714.56;5047517;28;20111;-75
2023/03/15 06:09:58;;;;;;;0.45;0.10;;;;;;;8.57;77.21;99722.94;5042737;28;20024;-75
2023/03/15 06:12:24;;;;;;;0.22;0.00;;;;;;;8.55;78.52;99717.88;5047570;28;20172;-76
2023/03/15 06:14:50;;;;;;;3.03;0.00;;;;;;;8.46;78.86;99731.78;5042534;28;21162;-75
2023/03/15 06:17:15;;;;;;;0.30;0.00;;;;;;;8.49;76.63;99743.66;5023797;28;20044;-76
2023/03/15 06:19:41;;;;;;;0.98;0.10;;;;;;;8.51;77.21;99741.69;5042314;28;20029;-74
2023/03/15 06:22:07;;;;;;;0.17;0.03;;;;;;;8.47;77.81;99741.22;5040591;28;20029;-74
2023/03/15 06:24:32;;;;;;;0.45;0.00;;;;;;;8.44;79.53;99733.72;5024921;28;20564;-74
2023/03/15 06:26:58;;;;;;;0.10;0.00;;;;;;;8.55;75.44;99745.63;5045804;28;20116;-74
2023/03/15 06:29:24;;;;;;;0.10;0.00;;;;;;;8.93;72.25;99747.09;5050383;28;20040;-73
2023/03/15 06:31:49;;;;;;;0.38;0.00;;;;;;;8.99;70.62;99751.66;5051214;28;20393;-74
2023/03/15 06:34:15;;;;;;;1.52;0.00;;;;;;;9.14;69.04;99752.75;5046526;28;20029;-74
2023/03/15 06:36:41;;;;;;;0.90;0.10;;;;;;;9.09;69.04;99757.59;5042640;28;20370;-74
2023/03/15 06:39:07;;;;;;;0.35;0.03;;;;;;;9.10;71.66;99776.59;5046147;28;20049;-74
2023/03/15 06:41:33;;;;;;;3.22;0.00;;;;;;;9.02;72.76;99786.94;5031058;28;20402;-73
2023/03/15 06:43:58;;;;;;;0.40;0.10;;;;;;;8.88;76.32;99796.91;5042803;28;20024;-74
2023/03/15 06:46:24;;;;;;;0.40;0.10;;;;;;;8.73;75.96;99806.19;5056755;28;20068;-74
2023/03/15 06:48:49;;;;;;;0.65;0.10;;;;;;;8.82;75.75;99810.50;5048073;28;20485;-74
2023/03/15 06:51:15;;;;;;;0.68;0.20;;;;;;;8.81;76.45;99821.84;5042107;28;20048;-74
2023/03/15 06:53:40;;;;;;;0.95;0.10;;;;;;;8.95;72.77;99823.94;5045444;28;20143;-73
2023/03/15 06:56:06;;;;;;;1.33;0.10;;;;;;;9.12;70.94;99811.03;5047153;28;20033;-74
2023/03/15 06:58:31;;;;;;;0.50;0.10;;;;;;;9.20;64.77;99821.50;5039020;28;20416;-75
2023/03/15 07:00:57;;;;;;;0.47;0.10;;;;;;;9.23;66.35;99827.22;5044428;28;20137;-74
2023/03/15 07:03:22;;;;;;;0.70;0.15;;;;;;;9.28;64.42;99832.78;5043373;28;20116;-74
2023/03/15 07:05:51;;;;;;;1.98;0.20;;;;;;;9.32;63.99;99841.91;5042762;28;20052;-74
2023/03/15 07:08:18;;;;;;;0.95;0.10;;;;;;;9.32;65.00;99838.50;5045552;28;20048;-74
2023/03/15 07:10:43;;;;;;;0.30;0.00;;;;;;;9.33;64.94;99847.94;5044511;28;20388;-74
2023/03/15 07:13:09;;;;;;;0.30;0.00;;;;;;;9.45;63.83;99851.91;5040477;28;20033;-74
2023/03/15 07:15:36;;;;;;;1.23;0.00;;;;;;;9.52;61.25;99859.91;5045415;28;20418;-74
2023/03/15 07:18:01;;;;;;;0.20;0.00;;;;;;;9.53;63.21;99857.16;5042948;28;20101;-73
2023/03/15 07:20:26;;;;;;;0.10;0.00;;;;;;;9.63;61.83;99870.06;5046860;28;20041;-74
2023/03/15 07:22:52;;;;;;;0.45;0.13;;;;;;;9.67;63.73;99868.78;5045457;28;20076;-73
2023/03/15 07:25:22;;;;;;;0.50;0.00;;;;;;;9.71;60.97;99879.72;5036761;28;20037;-73
2023/03/15 07:27:49;;;;;;;0.40;0.10;;;;;;;9.78;63.49;99884.16;5037247;28;20079;-73
2023/03/15 07:30:16;;;;;;;1.95;0.05;;;;;;;9.76;61.87;99885.28;5052629;28;20043;-73
2023/03/15 07:32:41;;;;;;;0.57;0.00;;;;;;;9.77;64.69;99886.91;5044435;28;20537;-73
2023/03/15 07:35:07;;;;;;;0.25;0.00;;;;;;;9.81;64.14;99896.03;5030460;28;20119;-74
2023/03/15 07:37:33;;;;;;;0.95;0.10;;;;;;;9.86;61.46;99899.00;5035320;28;20124;-73
2023/03/15 07:39:59;;;;;;;0.40;0.00;;;;;;;9.88;59.05;99897.88;5043682;28;20650;-74
2023/03/15 07:42:25;;;;;;;0.10;0.00;;;;;;;9.96;58.89;99910.09;5037301;28;20094;-74
2023/03/15 07:44:50;;;;;;;0.00;0.00;;;;;;;10.03;58.41;99915.50;5033113;28;20029;-74
2023/03/15 07:47:16;;;;;;;2.60;0.00;;;;;;;10.07;58.82;99927.25;5039564;28;20503;-74
2023/03/15 07:49:41;;;;;;;0.15;0.00;;;;;;;10.10;57.36;99934.75;5040596;28;20091;-73
2023/03/15 07:52:07;;;;;;;1.48;0.13;;;;;;;10.16;58.96;99919.31;5039123;28;20086;-72
2023/03/15 07:54:33;;;;;;;1.00;0.00;;;;;;;10.21;56.86;99926.72;5040611;28;20119;-73
2023/03/15 07:56:59;;;;;;;0.20;0.00;;;;;;;10.24;55.91;99931.59;5035073;28;20033;-74
2023/03/15 07:59:24;;;;;;;0.22;0.00;;;;;;;10.28;55.12;99938.94;5040424;28;20144;-72
2023/03/15 08:01:50;;;;;;;0.75;0.00;;;;;;;10.30;55.03;99938.81;5038025;28;20036;-73
2023/03/15 08:04:15;;;;;;;0.40;0.00;;;;;;;10.31;55.49;99945.63;5041552;28;20032;-72
2023/03/15 08:06:41;;;;;;;0.10;0.00;;;;;;;10.24;54.93;99944.63;5036286;28;20033;-72
2023/03/15 08:09:06;;;;;;;0.10;0.00;;;;;;;10.26;56.42;99943.50;5043379;28;20124;-73
2023/03/15 08:11:32;;;;;;;0.88;0.00;;;;;;;10.28;56.22;99948.56;5039678;28;20022;-74
2023/03/15 08:13:58;;;;;;;1.38;0.00;;;;;;;10.24;55.28;99932.41;5033759;28;20047;-74
2023/03/15 08:16:23;;;;;;;0.32;0.00;;;;;;;10.24;55.37;99957.63;5032989;28;20433;-74
2023/03/15 08:18:49;;;;;;;0.40;0.00;;;;;;;10.23;56.62;99945.59;5030422;28;20029;-74
2023/03/15 08:21:14;;;;;;;0.17;0.00;;;;;;;10.22;55.95;99939.56;5032637;28;20032;-73
2023/03/15 08:23:40;;;;;;;0.40;0.00;;;;;;;10.27;55.31;99939.94;5018199;28;20056;-72
2023/03/15 08:26:06;;;;;;;0.20;0.00;;;;;;;10.31;54.26;99948.25;5041252;28;20397;-74
2023/03/15 08:28:31;;;;;;;0.55;0.00;;;;;;;10.34;53.39;99947.13;5040071;28;20041;-73
2023/03/15 08:30:57;;;;;;;0.05;0.00;;;;;;;10.37;54.51;99954.63;5043303;28;20023;-74
2023/03/15 08:33:23;;;;;;;0.45;0.00;;;;;;;10.44;55.75;99953.00;5039124;28;20041;-73
2023/03/15 08:35:52;;;;;;;1.27;0.00;;;;;;;10.47;51.43;99947.47;5037019;28;20029;-73
2023/03/15 08:38:18;;;;;;;0.05;0.00;;;;;;;10.50;50.66;99947.16;5040671;28;20378;-74
2023/03/15 08:40:43;;;;;;;0.10;0.00;;;;;;;10.59;52.69;99957.47;5039209;28;20091;-75
2023/03/15 08:43:08;;;;;;;0.05;0.00;;;;;;;10.67;50.21;99956.69;5040820;28;20172;-75
2023/03/15 08:45:34;;;;;;;0.30;0.00;;;;;;;10.69;50.67;99956.53;5042040;28;20405;-76
2023/03/15 08:48:00;;;;;;;0.00;0.00;;;;;;;10.70;50.02;99960.78;5039910;28;20052;-75
2023/03/15 08:50:27;;;;;;;0.00;0.00;;;;;;;10.81;50.47;99965.69;5037818;28;20029;-75
2023/03/15 08:52:53;;;;;;;0.32;0.00;;;;;;;10.83;50.14;99968.97;5035412;28;20041;-74
2023/03/15 08:55:19;;;;;;;0.45;0.00;;;;;;;10.83;51.90;99984.59;5022601;28;20036;-74
2023/03/15 08:57:45;;;;;;;0.50;0.10;;;;;;;10.91;50.95;99980.22;5039053;28;20051;-74
2023/03/15 09:00:18;;;;;;;0.77;0.13;;;;;;;10.94;51.75;99981.69;5026022;28;20040;-75
2023/03/15 09:02:47;;;;;;;0.57;0.00;;;;;;;10.90;51.40;99986.41;5040046;28;20507;-74
2023/03/15 09:05:14;;;;;;;2.85;0.15;;;;;;;10.86;52.16;99979.91;5039619;28;20033;-74
2023/03/15 09:07:41;;;;;;;1.05;0.13;;;;;;;10.84;52.18;99987.06;5030014;28;20084;-73
2023/03/15 09:10:13;;;;;;;0.65;0.00;;;;;;;10.85;51.29;99987.88;5036376;28;20052;-75
2023/03/15 09:12:43;;;;;;;2.38;0.30;;;;;;;10.77;51.99;99983.44;5037376;28;20393;-74
2023/03/15 09:15:10;;;;;;;0.63;0.00;;;;;;;10.74;51.99;99988.97;5037530;28;20025;-74
2023/03/15 09:17:39;;;;;;;0.20;0.00;;;;;;;10.81;52.04;99997.78;5025964;28;20032;-74
2023/03/15 09:20:10;;;;;;;1.63;0.00;;;;;;;10.81;51.55;99996.97;5033570;28;20025;-74
2023/03/15 09:22:36;;;;;;;0.13;0.00;;;;;;;10.81;50.55;99996.97;5031729;28;20044;-74
2023/03/15 09:25:01;;;;;;;0.70;0.10;;;;;;;10.79;51.91;99998.91;5027416;28;20029;-74
2023/03/15 09:27:32;;;;;;;0.40;0.10;;;;;;;10.88;52.32;100006.59;5027822;28;20087;-74
2023/03/15 09:29:57;;;;;;;0.88;0.00;;;;;;;10.96;52.54;100017.03;5049735;28;20039;-74
2023/03/15 09:32:23;;;;;;;1.00;0.20;;;;;;;10.93;51.62;100013.94;5050798;28;20869;-76
2023/03/15 09:34:50;;;;;;;0.55;0.00;;;;;;;10.92;50.88;100018.34;5047771;28;20029;-74
2023/03/15 09:37:15;;;;;;;0.38;0.10;;;;;;;11.02;51.50;100020.00;5049957;28;20087;-76
2023/03/15 09:39:41;;;;;;;0.20;0.00;;;;;;;11.08;52.46;100029.78;5047106;28;20037;-73
2023/03/15 09:42:18;;;;;;;0.88;0.20;;;;;;;11.15;51.38;100030.81;5027062;28;20464;-75
2023/03/15 09:44:47;;;;;;;0.75;0.08;;;;;;;11.18;52.55;100023.47;5038006;28;20092;-75
2023/03/15 09:47:34;;;;;;;0.30;0.00;;;;;;;11.21;49.75;100035.38;5038631;28;20033;-74
2023/03/15 09:50:11;;;;;;;0.40;0.00;;;;;;;11.34;53.45;100035.75;5049834;28;20032;-74
2023/03/15 09:52:50;;;;;;;0.10;0.00;;;;;;;11.46;54.86;100042.28;5044285;28;20040;-74
2023/03/15 09:55:20;;;;;;;1.15;0.30;;;;;;;11.42;54.39;100038.34;5053746;28;20485;-74
2023/03/15 09:58:03;;;;;;;0.17;0.00;;;;;;;11.38;50.18;100041.44;5054329;28;20103;-74
2023/03/15 10:00:34;;;;;;;0.17;0.00;;;;;;;11.47;54.57;100056.13;5048120;28;20029;-73
2023/03/15 10:03:05;;;;;;;3.45;0.00;;;;;;;11.49;56.25;100038.53;5038995;28;20025;-74
2023/03/15 10:05:39;;;;;;;1.65;0.00;;;;;;;11.54;57.66;100034.47;5033196;28;20036;-74
2023/03/15 10:08:13;;;;;;;1.40;0.00;;;;;;;11.52;56.37;100046.84;5046983;28;20029;-73
2023/03/15 10:11:04;;;;;;;0.52;0.20;;;;;;;11.56;53.61;100050.78;5039148;28;20037;-74
2023/03/15 10:13:41;;;;;;;2.72;0.03;;;;;;;11.63;50.31;100054.38;5045038;28;20067;-74
2023/03/15 10:16:26;;;;;;;0.40;0.00;;;;;;;11.66;49.60;100055.84;5051698;28;20063;-74
2023/03/15 10:19:04;;;;;;;0.00;0.00;;;;;;;11.66;49.61;100060.25;5050181;28;20029;-74
2023/03/15 10:21:53;;;;;;;0.47;0.00;;;;;;;11.72;51.74;100064.81;5048248;28;20041;-74
2023/03/15 10:24:39;;;;;;;0.55;0.00;;;;;;;11.82;50.72;100062.88;5041378;28;20037;-74
2023/03/15 10:27:16;;;;;;;0.60;0.00;;;;;;;11.90;51.47;100068.94;5045502;28;20115;-71
2023/03/15 10:29:43;;;;;;;0.08;0.00;;;;;;;11.93;52.76;100065.19;5045153;28;20024;-73
2023/03/15 10:32:17;;;;;;;0.20;0.00;;;;;;;12.04;50.74;100059.63;5046503;28;20036;-73
2023/03/15 10:34:50;;;;;;;0.28;0.03;;;;;;;12.06;49.15;100065.50;5036683;28;20037;-73
2023/03/15 10:37:15;;;;;;;0.22;0.00;;;;;;;12.30;49.26;100065.47;5031527;28;20052;-73
2023/03/15 10:39:45;;;;;;;1.48;0.00;;;;;;;12.33;47.21;100064.34;5049252;28;20469;-72
2023/03/15 10:42:32;;;;;;;0.35;0.00;;;;;;;12.29;44.52;100063.84;5062668;28;20083;-73
2023/03/15 10:45:10;;;;;;;0.10;0.00;;;;;;;12.21;48.14;100065.69;5043822;28;21285;-72
2023/03/15 10:47:42;;;;;;;0.38;0.00;;;;;;;12.07;47.08;100064.53;5022914;28;20068;-73
2023/03/15 10:50:09;;;;;;;0.10;0.00;;;;;;;12.15;43.53;100068.94;5038945;28;20021;-73
2023/03/15 10:52:38;;;;;;;0.13;0.00;;;;;;;12.09;45.65;100073.03;5047591;28;20095;-74
2023/03/15 10:55:10;;;;;;;0.63;0.00;;;;;;;12.15;46.28;100077.59;5043889;28;21975;-74
2023/03/15 10:57:49;;;;;;;0.00;0.00;;;;;;;12.22;46.58;100062.91;5047957;28;20441;-74
2023/03/15 11:00:25;;;;;;;0.03;0.00;;;;;;;12.26;47.44;100066.81;5054349;28;20033;-74
2023/03/15 11:02:59;;;;;;;;;;;;;;;12.25;42.17;100065.19;5048019;28;20055;-75
2023/03/15 11:05:29;;;;;;;1.83;0.00;;;;;;;12.53;41.65;100062.19;5040830;28;19916;-75
2023/03/15 11:07:57;;;;;;;1.75;0.00;;;;;;;12.63;44.56;100070.66;5044539;28;20025;-71
2023/03/15 11:10:26;;;;;;;0.15;0.00;;;;;;;12.83;41.23;100073.69;5031043;28;20029;-72
2023/03/15 11:13:11;;;;;;;0.60;0.00;;;;;;;12.76;37.98;100076.16;5042150;28;20065;-72
2023/03/15 11:15:39;;;;;;;1.70;0.10;;;;;;;12.83;42.60;100071.91;5042320;28;20480;-71
2023/03/15 11:18:04;;;;;;;1.27;0.20;;;;;;;12.75;44.23;100069.34;5048067;28;20051;-72
2023/03/15 11:20:34;;;;;;;0.05;0.00;;;;;;;12.80;42.64;100076.66;5040957;28;20029;-72
2023/03/15 11:23:12;;;;;;;1.60;0.22;;;;;;;13.06;41.87;100081.63;5049417;28;20044;-71
2023/03/15 11:25:38;;;;;;;3.45;0.10;;;;;;;13.35;38.11;100075.78;5046766;28;20040;-73
2023/03/15 11:28:04;;;;;;;0.57;0.10;;;;;;;13.43;39.96;100076.56;5045632;28;20143;-72
2023/03/15 11:30:30;;;;;;;0.57;0.10;;;;;;;13.52;37.41;100082.56;5028980;28;20033;-73
2023/03/15 11:33:02;;;;;;;0.38;0.00;;;;;;;13.35;38.60;100074.00;5050908;28;20033;-72
2023/03/15 11:35:37;;;;;;;0.28;0.05;;;;;;;13.02;39.76;100081.16;5024987;28;20097;-71
2023/03/15 11:38:13;;;;;;;0.10;0.00;;;;;;;12.94;37.84;100084.59;5041554;28;20032;-72